Time;durP1;ratioP1;P1;durP2;ratioP2;P2;SDS_P1;SDS_P2;PMS_P1;PMS_P2;Temp;Humidity;BMP_temperature;BMP_pressure;BME280_temperature;BME280_humidity;BME280_pressure;Samples;Min_cycle;Max_cycle;Signal;HPM_P1;HPM_P2
2023/04/20 00:01:53;;;;;;;;;;;13.40;48.90;;;;;;5039555;28;20321;-90
2023/04/20 00:04:20;;;;;;;;;;;13.40;48.90;;;;;;5040328;28;19909;-90
2023/04/20 00:06:46;;;;;;;;;;;13.40;48.90;;;;;;5040049;28;20150;-91
2023/04/20 00:09:14;;;;;;;;;;;13.40;48.90;;;;;;5040768;28;19909;-91
2023/04/20 00:11:40;;;;;;;;;;;13.40;48.90;;;;;;5040597;28;19908;-90
2023/04/20 00:14:06;;;;;;;;;;;13.40;48.90;;;;;;5041108;28;19909;-91
2023/04/20 00:16:32;;;;;;;;;;;13.40;48.80;;;;;;5041717;28;19936;-90
2023/04/20 00:19:00;;;;;;;;;;;13.40;48.80;;;;;;5040645;28;19908;-90
2023/04/20 00:21:26;;;;;;;;;;;13.30;48.70;;;;;;5040097;28;19923;-90
2023/04/20 00:23:55;;;;;;;;;;;13.30;48.70;;;;;;5039900;28;19995;-90
2023/04/20 00:26:20;;;;;;;;;;;13.30;48.70;;;;;;5041918;28;19962;-90
2023/04/20 00:28:46;;;;;;;;;;;13.30;48.80;;;;;;5041582;28;20229;-90
2023/04/20 00:31:14;;;;;;;;;;;13.30;48.80;;;;;;5039478;28;19913;-90
2023/04/20 00:33:40;;;;;;;;;;;13.30;48.80;;;;;;5039777;28;19913;-91
2023/04/20 00:36:09;;;;;;;;;;;13.30;48.80;;;;;;5040382;28;19924;-90
2023/04/20 00:38:37;;;;;;;;;;;13.30;48.90;;;;;;5039981;28;20199;-90
2023/04/20 00:41:03;;;;;;;;;;;13.30;48.90;;;;;;5039299;28;20273;-91
2023/04/20 00:43:29;;;;;;;;;;;13.30;48.90;;;;;;5039964;28;19909;-91
2023/04/20 00:45:57;;;;;;;;;;;13.30;48.90;;;;;;5057216;28;19966;-90
2023/04/20 00:48:26;;;;;;;;;;;13.20;48.90;;;;;;5039994;28;19954;-90
2023/04/20 00:50:52;;;;;;;;;;;13.30;48.90;;;;;;5040585;28;19920;-90
2023/04/20 00:53:21;;;;;;;;;;;13.30;49.00;;;;;;5040327;28;19909;-91
2023/04/20 00:55:46;;;;;;;;;;;13.20;48.90;;;;;;5040197;28;20276;-90
2023/04/20 00:58:15;;;;;;;;;;;13.20;49.00;;;;;;5039786;28;19909;-90
2023/04/20 01:00:43;;;;;;;;;;;13.20;49.00;;;;;;5040307;28;19924;-90
2023/04/20 01:03:09;;;;;;;;;;;13.20;49.00;;;;;;5039835;28;19909;-90
2023/04/20 01:05:38;;;;;;;;;;;13.20;49.00;;;;;;5039432;28;19919;-90
2023/04/20 01:08:04;;;;;;;;;;;13.20;49.10;;;;;;5039729;28;19959;-90
2023/04/20 01:10:29;;;;;;;;;;;13.20;49.10;;;;;;5039971;28;19948;-90
2023/04/20 01:12:55;;;;;;;;;;;13.20;49.20;;;;;;5039968;28;20246;-91
2023/04/20 01:15:24;;;;;;;;;;;13.20;49.20;;;;;;5039529;28;19916;-90
2023/04/20 01:17:51;;;;;;;;;;;13.20;49.20;;;;;;5040902;28;20271;-90
2023/04/20 01:20:16;;;;;;;;;;;13.20;49.30;;;;;;5039142;28;19909;-90
2023/04/20 01:22:46;;;;;;;;;;;13.20;49.30;;;;;;5040102;28;20156;-90
2023/04/20 01:25:11;;;;;;;;;;;13.10;49.30;;;;;;5057913;28;20283;-90
2023/04/20 01:27:37;;;;;;;;;;;13.10;49.40;;;;;;5041078;28;19971;-90
2023/04/20 01:30:06;;;;;;;;;;;13.10;49.40;;;;;;5039407;28;20000;-91
2023/04/20 01:32:32;;;;;;;;;;;13.10;49.40;;;;;;5039298;28;20016;-91
2023/04/20 01:34:57;;;;;;;;;;;13.10;49.50;;;;;;5039493;28;19999;-91
2023/04/20 01:37:23;;;;;;;;;;;13.10;49.50;;;;;;5040274;28;20007;-91
2023/04/20 01:39:48;;;;;;;;;;;13.10;49.60;;;;;;5039920;28;20011;-90
2023/04/20 01:42:14;;;;;;;;;;;13.10;49.60;;;;;;5039287;28;19917;-91
2023/04/20 01:44:40;;;;;;;;;;;13.10;49.70;;;;;;5039868;28;19917;-91
2023/04/20 01:47:05;;;;;;;;;;;13.10;49.70;;;;;;5037105;28;20110;-91
2023/04/20 01:49:34;;;;;;;;;;;13.10;49.70;;;;;;5035459;28;19908;-91
2023/04/20 01:52:03;;;;;;;;;;;13.10;49.80;;;;;;5054343;28;19909;-91
2023/04/20 01:54:28;;;;;;;;;;;13.10;49.80;;;;;;5036456;28;19963;-91
2023/04/20 01:56:57;;;;;;;;;;;13.10;49.80;;;;;;5036862;28;19956;-90
2023/04/20 01:59:22;;;;;;;;;;;13.10;49.80;;;;;;5037200;28;19909;-91
2023/04/20 02:01:48;;;;;;;;;;;13.10;49.90;;;;;;5036340;28;20249;-91
2023/04/20 02:04:17;;;;;;;;;;;13.10;49.90;;;;;;5036113;28;19909;-91
2023/04/20 02:06:43;;;;;;;;;;;13.10;49.90;;;;;;5036652;28;20279;-91
2023/04/20 02:09:09;;;;;;;;;;;13.10;50.30;;;;;;5039017;28;19909;-91
2023/04/20 02:11:37;;;;;;;;;;;13.10;50.00;;;;;;5039203;28;19913;-91
2023/04/20 02:14:06;;;;;;;;;;;13.10;50.00;;;;;;5038878;28;19909;-91
2023/04/20 02:16:36;;;;;;;;;;;13.10;50.00;;;;;;5037777;28;19916;-90
2023/04/20 02:19:02;;;;;;;;;;;13.10;50.00;;;;;;5037036;28;19919;-91
2023/04/20 02:21:27;;;;;;;;;;;13.10;50.00;;;;;;5035686;28;19916;-91
2023/04/20 02:23:53;;;;;;;;;;;13.00;49.90;;;;;;5038171;28;19909;-91
2023/04/20 02:26:19;;;;;;;;;;;13.00;50.00;;;;;;5036323;28;20001;-90
2023/04/20 02:28:44;;;;;;;;;;;13.00;50.00;;;;;;5036953;28;19915;-90
2023/04/20 02:31:10;;;;;;;;;;;13.00;50.00;;;;;;5037367;28;19908;-91
2023/04/20 02:33:36;;;;;;;;;;;13.00;50.00;;;;;;5037743;28;19967;-91
2023/04/20 02:36:02;;;;;;;;;;;13.00;50.00;;;;;;5037395;28;19924;-91
2023/04/20 02:38:31;;;;;;;;;;;13.00;50.00;;;;;;5037556;28;20270;-91
2023/04/20 02:40:59;;;;;;;;;;;13.00;50.00;;;;;;5036817;28;19913;-90
2023/04/20 02:43:25;;;;;;;;;;;13.00;50.00;;;;;;5037823;28;19917;-91
2023/04/20 02:45:53;;;;;;;;;;;13.00;50.00;;;;;;5037780;28;19909;-91
2023/04/20 02:48:19;;;;;;;;;;;13.00;50.00;;;;;;5038336;28;20168;-91
2023/04/20 02:50:44;;;;;;;;;;;13.00;50.00;;;;;;5036581;28;20325;-90
2023/04/20 02:53:10;;;;;;;;;;;13.00;50.00;;;;;;5037187;28;19908;-91
2023/04/20 02:55:35;;;;;;;;;;;13.00;50.10;;;;;;5036834;28;20240;-91
2023/04/20 02:58:04;;;;;;;;;;;13.00;50.10;;;;;;5036554;28;20262;-90
2023/04/20 03:00:33;;;;;;;;;;;13.00;50.10;;;;;;5036932;28;20286;-90
2023/04/20 03:03:02;;;;;;;;;;;13.00;50.10;;;;;;5036580;28;19999;-90
2023/04/20 03:05:31;;;;;;;;;;;13.00;50.10;;;;;;5037261;28;19913;-90
2023/04/20 03:07:56;;;;;;;;;;;12.90;50.10;;;;;;5037368;28;19935;-92
2023/04/20 03:10:22;;;;;;;;;;;12.90;50.10;;;;;;5036405;28;20261;-90
2023/04/20 03:12:47;;;;;;;;;;;12.90;50.10;;;;;;5036658;28;20382;-90
2023/04/20 03:15:17;;;;;;;;;;;12.90;50.10;;;;;;5036586;28;19916;-91
2023/04/20 03:17:43;;;;;;;;;;;12.90;50.10;;;;;;5035704;28;19920;-90
2023/04/20 03:20:08;;;;;;;;;;;12.90;50.10;;;;;;5036592;28;19909;-91
2023/04/20 03:22:34;;;;;;;;;;;12.90;50.20;;;;;;5036383;28;20199;-90
2023/04/20 03:24:59;;;;;;;;;;;12.90;50.10;;;;;;5037111;28;19909;-90
2023/04/20 03:27:28;;;;;;;;;;;12.90;50.20;;;;;;5037677;28;19909;-90
2023/04/20 03:29:54;;;;;;;;;;;12.90;50.20;;;;;;5037728;28;19912;-90
2023/04/20 03:32:19;;;;;;;;;;;12.90;50.20;;;;;;5038145;28;20156;-91
2023/04/20 03:34:45;;;;;;;;;;;12.90;50.20;;;;;;5038328;28;19969;-90
2023/04/20 03:37:10;;;;;;;;;;;12.90;50.20;;;;;;5038502;28;19924;-90
2023/04/20 03:39:36;;;;;;;;;;;12.80;50.20;;;;;;5037866;28;20003;-90
2023/04/20 03:42:02;;;;;;;;;;;12.90;50.30;;;;;;5055257;28;20036;-90
2023/04/20 03:44:31;;;;;;;;;;;12.90;50.30;;;;;;5037902;28;19987;-90
2023/04/20 03:46:56;;;;;;;;;;;12.80;50.30;;;;;;5037435;28;20164;-90
2023/04/20 03:49:25;;;;;;;;;;;12.80;50.30;;;;;;5037355;28;20324;-90
2023/04/20 03:51:54;;;;;;;;;;;12.80;50.30;;;;;;5036126;28;19920;-91
2023/04/20 03:54:23;;;;;;;;;;;12.80;50.30;;;;;;5036657;28;20011;-90
2023/04/20 03:56:49;;;;;;;;;;;12.80;50.40;;;;;;5035790;28;20318;-90
2023/04/20 03:59:17;;;;;;;;;;;12.80;50.40;;;;;;5038748;28;19967;-90
2023/04/20 04:01:46;;;;;;;;;;;12.80;50.40;;;;;;5039479;28;20327;-90
2023/04/20 04:04:15;;;;;;;;;;;12.80;50.50;;;;;;5039429;28;19944;-90
2023/04/20 04:06:40;;;;;;;;;;;12.80;50.50;;;;;;5040329;28;19989;-90
2023/04/20 04:09:06;;;;;;;;;;;12.80;50.50;;;;;;5039893;28;20213;-90
2023/04/20 04:11:31;;;;;;;;;;;12.80;50.50;;;;;;5037824;28;19917;-90
2023/04/20 04:14:00;;;;;;;;;;;12.80;50.60;;;;;;5039295;28;19994;-90
2023/04/20 04:16:25;;;;;;;;;;;12.70;50.50;;;;;;5040177;28;19963;-90
2023/04/20 04:18:51;;;;;;;;;;;12.70;50.50;;;;;;5038521;28;19956;-90
2023/04/20 04:21:16;;;;;;;;;;;12.70;50.60;;;;;;5036182;28;20003;-90
2023/04/20 04:23:42;;;;;;;;;;;12.70;50.60;;;;;;5035969;28;19909;-90
2023/04/20 04:26:08;;;;;;;;;;;12.70;50.60;;;;;;5036635;28;19909;-90
2023/04/20 04:28:37;;;;;;;;;;;12.70;50.70;;;;;;5054642;28;20003;-90
2023/04/20 04:31:06;;;;;;;;;;;12.70;50.70;;;;;;5035326;28;19909;-90
2023/04/20 04:33:33;;;;;;;;;;;12.70;50.70;;;;;;5035641;28;19909;-90
2023/04/20 04:36:00;;;;;;;;;;;12.70;50.70;;;;;;5034070;28;19917;-90
2023/04/20 04:38:26;;;;;;;;;;;12.70;50.80;;;;;;5033048;28;20470;-90
2023/04/20 04:40:52;;;;;;;;;;;12.70;50.90;;;;;;5032976;28;19919;-90
2023/04/20 04:43:18;;;;;;;;;;;12.70;51.30;;;;;;5031751;28;20007;-90
2023/04/20 04:45:44;;;;;;;;;;;12.70;50.90;;;;;;5033328;28;19952;-90
2023/04/20 04:48:10;;;;;;;;;;;12.70;51.00;;;;;;5034067;28;19940;-90
2023/04/20 04:50:39;;;;;;;;;;;12.70;51.00;;;;;;5035241;28;20182;-90
2023/04/20 04:53:05;;;;;;;;;;;12.70;51.00;;;;;;5036654;28;20245;-90
2023/04/20 04:55:34;;;;;;;;;;;12.70;51.10;;;;;;5034106;28;19916;-90
2023/04/20 04:58:00;;;;;;;;;;;12.60;51.10;;;;;;5034608;28;19909;-90
2023/04/20 05:00:35;;;;;;;;;;;12.60;51.10;;;;;;5035498;28;20190;-90
2023/04/20 05:03:04;;;;;;;;;;;12.60;51.20;;;;;;5040656;28;19917;-90
2023/04/20 05:05:30;;;;;;;;;;;12.60;51.20;;;;;;5035319;28;20085;-91
2023/04/20 05:07:55;;;;;;;;;;;12.60;51.30;;;;;;5032783;28;19909;-90
2023/04/20 05:10:21;;;;;;;;;;;12.60;51.70;;;;;;5032772;28;19909;-90
2023/04/20 05:12:47;;;;;;;;;;;12.60;51.40;;;;;;5031195;28;19923;-91
2023/04/20 05:15:13;;;;;;;;;;;12.60;51.40;;;;;;5031210;28;19909;-91
2023/04/20 05:17:38;;;;;;;;;;;12.60;51.40;;;;;;5031892;28;19909;-91
2023/04/20 05:20:05;;;;;;;;;;;12.60;51.40;;;;;;5031819;28;19951;-90
2023/04/20 05:22:31;;;;;;;;;;;12.60;51.40;;;;;;5031027;28;20458;-90
2023/04/20 05:24:57;;;;;;;;;;;12.60;51.40;;;;;;5028445;28;20011;-90
2023/04/20 05:27:26;;;;;;;;;;;12.60;51.50;;;;;;5027696;28;20311;-90
2023/04/20 05:29:54;;;;;;;;;;;12.60;51.50;;;;;;5028211;28;20244;-90
2023/04/20 05:32:23;;;;;;;;;;;12.60;51.50;;;;;;5028340;28;20198;-91
2023/04/20 05:34:49;;;;;;;;;;;12.60;51.50;;;;;;5029479;28;19917;-90
2023/04/20 05:37:18;;;;;;;;;;;12.60;51.60;;;;;;5028671;28;19923;-93
2023/04/20 05:39:46;;;;;;;;;;;12.60;51.70;;;;;;5027752;28;19909;-90
2023/04/20 05:42:15;;;;;;;;;;;12.60;51.70;;;;;;5026950;28;19994;-90
2023/04/20 05:44:42;;;;;;;;;;;12.60;51.80;;;;;;5031990;28;19908;-91
2023/04/20 05:47:08;;;;;;;;;;;12.60;51.80;;;;;;5029632;28;19973;-90
2023/04/20 05:49:37;;;;;;;;;;;12.60;51.90;;;;;;5032490;28;19909;-90
2023/04/20 05:52:03;;;;;;;;;;;12.60;52.00;;;;;;5030613;28;20080;-90
2023/04/20 05:54:31;;;;;;;;;;;12.60;52.10;;;;;;5048084;28;19938;-90
2023/04/20 05:57:00;;;;;;;;;;;12.50;52.20;;;;;;5032499;28;20156;-90
2023/04/20 05:59:26;;;;;;;;;;;12.60;52.20;;;;;;5031977;28;20046;-91
2023/04/20 06:01:55;;;;;;;;;;;12.60;52.40;;;;;;5048167;28;20083;-90
2023/04/20 06:04:20;;;;;;;;;;;12.50;52.40;;;;;;5030360;28;20411;-91
2023/04/20 06:06:49;;;;;;;;;;;12.50;52.50;;;;;;5031011;28;20003;-90
2023/04/20 06:09:15;;;;;;;;;;;12.50;52.50;;;;;;5032597;28;19928;-91
2023/04/20 06:11:44;;;;;;;;;;;12.50;52.60;;;;;;5030610;28;19913;-91
2023/04/20 06:14:10;;;;;;;;;;;12.50;52.70;;;;;;5030612;28;19909;-91
2023/04/20 06:16:36;;;;;;;;;;;12.50;52.80;;;;;;5030808;28;19909;-90
2023/04/20 06:19:05;;;;;;;;;;;12.50;52.80;;;;;;5029354;28;20195;-91
2023/04/20 06:21:32;;;;;;;;;;;12.50;52.90;;;;;;5029946;28;20124;-91
2023/04/20 06:23:57;;;;;;;;;;;12.50;53.00;;;;;;5029151;28;20272;-91
2023/04/20 06:26:23;;;;;;;;;;;12.50;53.30;;;;;;5031070;28;19940;-90
2023/04/20 06:28:51;;;;;;;;;;;12.50;53.50;;;;;;5031563;28;19909;-91
2023/04/20 06:31:20;;;;;;;;;;;12.50;53.80;;;;;;5033425;28;19958;-91
2023/04/20 06:33:49;;;;;;;;;;;12.50;53.80;;;;;;5033198;28;19908;-91
2023/04/20 06:36:14;;;;;;;;;;;12.50;53.80;;;;;;5029601;28;20421;-91
2023/04/20 06:38:44;;;;;;;;;;;12.50;53.80;;;;;;5027616;28;20275;-91
2023/04/20 06:41:10;;;;;;;;;;;12.50;53.80;;;;;;5026455;28;20140;-90
2023/04/20 06:43:38;;;;;;;;;;;12.50;53.80;;;;;;5028238;28;20195;-91
2023/04/20 06:46:04;;;;;;;;;;;12.50;53.90;;;;;;5028476;28;19908;-90
2023/04/20 06:48:29;;;;;;;;;;;12.50;53.90;;;;;;5027587;28;19919;-91
2023/04/20 06:50:55;;;;;;;;;;;12.50;53.90;;;;;;5028294;28;19940;-91
2023/04/20 06:53:20;;;;;;;;;;;12.50;53.90;;;;;;5028509;28;19919;-90
2023/04/20 06:55:49;;;;;;;;;;;12.50;54.00;;;;;;5028529;28;19909;-90
2023/04/20 06:58:18;;;;;;;;;;;12.50;53.90;;;;;;5030917;28;19920;-90
2023/04/20 07:00:46;;;;;;;;;;;12.50;53.90;;;;;;5030345;28;19909;-90
2023/04/20 07:03:17;;;;;;;;;;;12.50;54.00;;;;;;5029828;28;20281;-90
2023/04/20 07:05:43;;;;;;;;;;;12.40;53.90;;;;;;5029659;28;20059;-90
2023/04/20 07:08:11;;;;;;;;;;;12.50;54.00;;;;;;5030348;28;20046;-90
2023/04/20 07:10:40;;;;;;;;;;;12.50;54.00;;;;;;5029539;28;20019;-90
2023/04/20 07:13:09;;;;;;;;;;;12.50;54.00;;;;;;5030437;28;19920;-90
2023/04/20 07:15:34;;;;;;;;;;;12.50;54.10;;;;;;5030091;28;19909;-90
2023/04/20 07:18:00;;;;;;;;;;;12.40;54.10;;;;;;5028157;28;20183;-89
2023/04/20 07:20:26;;;;;;;;;;;12.40;54.00;;;;;;5044738;28;19909;-90
2023/04/20 07:22:51;;;;;;;;;;;12.40;54.00;;;;;;5027096;28;19912;-90
2023/04/20 07:25:17;;;;;;;;;;;12.50;54.10;;;;;;5029135;28;19916;-90
2023/04/20 07:27:46;;;;;;;;;;;12.50;54.10;;;;;;5028931;28;19932;-91
2023/04/20 07:30:11;;;;;;;;;;;12.50;54.20;;;;;;5044758;28;20383;-90
2023/04/20 07:32:38;;;;;;;;;;;12.50;54.20;;;;;;5027856;28;19909;-91
2023/04/20 07:35:03;;;;;;;;;;;12.50;54.20;;;;;;5033731;28;19952;-90
2023/04/20 07:37:30;;;;;;;;;;;12.50;54.30;;;;;;5032891;28;20203;-90
2023/04/20 07:39:56;;;;;;;;;;;12.50;54.40;;;;;;5031824;28;19908;-90
2023/04/20 07:42:22;;;;;;;;;;;12.50;54.40;;;;;;5031523;28;19913;-90
2023/04/20 07:44:47;;;;;;;;;;;12.40;54.40;;;;;;5031748;28;19913;-90
2023/04/20 07:47:13;;;;;;;;;;;12.40;54.40;;;;;;5032371;28;19944;-90
2023/04/20 07:49:42;;;;;;;;;;;12.40;54.40;;;;;;5032272;28;20019;-91
2023/04/20 07:52:07;;;;;;;;;;;12.40;54.50;;;;;;5030985;28;19909;-90
2023/04/20 07:54:33;;;;;;;;;;;12.40;54.50;;;;;;5032397;28;20191;-90
2023/04/20 07:57:00;;;;;;;;;;;12.40;54.50;;;;;;5033904;28;20238;-90
2023/04/20 07:59:26;;;;;;;;;;;12.40;54.50;;;;;;5031927;28;19908;-90
2023/04/20 08:01:51;;;;;;;;;;;12.40;54.60;;;;;;5032007;28;20237;-90
2023/04/20 08:04:17;;;;;;;;;;;12.40;54.60;;;;;;5028766;28;20210;-90
2023/04/20 08:06:43;;;;;;;;;;;12.40;54.60;;;;;;5030178;28;20345;-90
2023/04/20 08:09:11;;;;;;;;;;;12.40;54.60;;;;;;5029315;28;20319;-90
2023/04/20 08:11:40;;;;;;;;;;;12.40;54.70;;;;;;5031189;28;19931;-90
2023/04/20 08:14:08;;;;;;;;;;;12.40;54.70;;;;;;5030455;28;20373;-90
2023/04/20 08:16:37;;;;;;;;;;;12.40;54.70;;;;;;5030303;28;19909;-90
2023/04/20 08:19:09;;;;;;;;;;;12.40;54.80;;;;;;5031517;28;20331;-90
2023/04/20 08:21:38;;;;;;;;;;;12.40;54.80;;;;;;5030283;28;20011;-91
2023/04/20 08:24:06;;;;;;;;;;;12.40;54.80;;;;;;5029753;28;19917;-90
2023/04/20 08:26:35;;;;;;;;;;;12.40;54.80;;;;;;5032884;28;19916;-92
2023/04/20 08:29:04;;;;;;;;;;;12.40;54.90;;;;;;5032989;28;19920;-92
2023/04/20 08:31:30;;;;;;;;;;;12.40;55.40;;;;;;5033759;28;19920;-92
2023/04/20 08:33:59;;;;;;;;;;;12.40;55.10;;;;;;5031792;28;19913;-91
2023/04/20 08:36:28;;;;;;;;;;;12.40;55.10;;;;;;5030436;28;19913;-91
2023/04/20 08:39:04;;;;;;;;;;;12.40;55.10;;;;;;5030044;28;19909;-92
2023/04/20 08:41:33;;;;;;;;;;;12.40;55.20;;;;;;5029771;28;20241;-91
2023/04/20 08:43:58;;;;;;;;;;;12.40;55.20;;;;;;5029998;28;20088;-92
2023/04/20 08:46:27;;;;;;;;;;;12.50;55.30;;;;;;5031047;28;20271;-91
2023/04/20 08:48:56;;;;;;;;;;;12.50;55.30;;;;;;5025045;28;19909;-92
2023/04/20 08:51:25;;;;;;;;;;;12.50;55.40;;;;;;5030002;28;19909;-93
2023/04/20 08:53:57;;;;;;;;;;;12.50;55.40;;;;;;5032284;28;19973;-92
2023/04/20 08:56:32;;;;;;;;;;;12.60;55.40;;;;;;5031862;28;19909;-91
2023/04/20 08:58:59;;;;;;;;;;;12.90;55.00;;;;;;5029719;28;19913;-92
2023/04/20 09:01:32;;;;;;;;;;;13.10;54.60;;;;;;5028920;28;19913;-91
2023/04/20 09:04:01;;;;;;;;;;;13.40;54.30;;;;;;5030965;28;19927;-91
2023/04/20 09:06:27;;;;;;;;;;;13.50;53.80;;;;;;5028736;28;19913;-92
2023/04/20 09:08:53;;;;;;;;;;;13.50;53.60;;;;;;5028432;28;19909;-91
2023/04/20 09:11:26;;;;;;;;;;;13.60;53.40;;;;;;5029433;28;20145;-92
2023/04/20 09:13:58;;;;;;;;;;;13.50;53.50;;;;;;5033758;28;20131;-93
2023/04/20 09:16:24;;;;;;;;;;;13.40;53.50;;;;;;5033139;28;19920;-92
2023/04/20 09:18:56;;;;;;;;;;;13.30;53.90;;;;;;5033683;28;19996;-92
2023/04/20 09:21:27;;;;;;;;;;;13.20;54.10;;;;;;5030337;28;20074;-92
2023/04/20 09:24:07;;;;;;;;;;;13.20;54.20;;;;;;5031679;28;19948;-91
2023/04/20 09:26:34;;;;;;;;;;;13.10;54.40;;;;;;5030252;28;19908;-91
2023/04/20 09:29:14;;;;;;;;;;;13.10;54.40;;;;;;5031676;28;19909;-91
2023/04/20 09:31:40;;;;;;;;;;;13.20;54.40;;;;;;5031241;28;20195;-90
2023/04/20 09:34:06;;;;;;;;;;;13.40;54.20;;;;;;5029375;28;20114;-91
2023/04/20 09:36:38;;;;;;;;;;;13.50;54.20;;;;;;5030004;28;20011;-90
2023/04/20 09:39:08;;;;;;;;;;;13.60;54.00;;;;;;5031280;28;19950;-91
2023/04/20 09:41:34;;;;;;;;;;;13.80;53.60;;;;;;5032235;28;19978;-90
2023/04/20 09:44:00;;;;;;;;;;;13.60;53.70;;;;;;5031039;28;19944;-91
2023/04/20 09:46:30;;;;;;;;;;;13.60;53.90;;;;;;5033348;28;19955;-91
2023/04/20 09:48:57;;;;;;;;;;;13.50;54.10;;;;;;5032729;28;19909;-91
2023/04/20 09:51:26;;;;;;;;;;;13.40;54.20;;;;;;5031902;28;19944;-91
2023/04/20 09:53:58;;;;;;;;;;;13.40;54.50;;;;;;5032890;28;19917;-91
2023/04/20 09:56:25;;;;;;;;;;;13.40;54.70;;;;;;5033578;28;19909;-91
2023/04/20 09:58:53;;;;;;;;;;;13.40;54.70;;;;;;5032594;28;19944;-91
2023/04/20 10:01:22;;;;;;;;;;;13.70;54.90;;;;;;5032307;28;19921;-91
2023/04/20 10:03:48;;;;;;;;;;;14.60;54.40;;;;;;5032286;28;20019;-93
2023/04/20 10:06:21;;;;;;;;;;;15.20;52.90;;;;;;5033213;28;19908;-90
2023/04/20 10:08:48;;;;;;;;;;;15.40;52.00;;;;;;5030576;28;20271;-91
2023/04/20 10:11:32;;;;;;;;;;;15.90;51.70;;;;;;5031345;28;19908;-90
2023/04/20 10:13:59;;;;;;;;;;;16.50;50.40;;;;;;5032442;28;20024;-90
2023/04/20 10:16:25;;;;;;;;;;;16.60;49.70;;;;;;5032043;28;19912;-91
2023/04/20 10:19:03;;;;;;;;;;;16.40;49.70;;;;;;5028372;28;19909;-90
2023/04/20 10:21:31;;;;;;;;;;;15.90;50.50;;;;;;5027791;28;19967;-93
2023/04/20 10:23:59;;;;;;;;;;;15.40;51.10;;;;;;5028098;28;20291;-90
2023/04/20 10:26:35;;;;;;;;;;;15.00;51.60;;;;;;5027406;28;19909;-90
2023/04/20 10:29:01;;;;;;;;;;;14.80;52.30;;;;;;5025804;28;19909;-90
2023/04/20 10:31:40;;;;;;;;;;;14.60;52.70;;;;;;5027561;28;19974;-90
2023/04/20 10:34:06;;;;;;;;;;;14.40;53.20;;;;;;5028733;28;19916;-90
2023/04/20 10:36:39;;;;;;;;;;;14.30;53.40;;;;;;5029061;28;19919;-90
2023/04/20 10:39:17;;;;;;;;;;;14.30;53.80;;;;;;5033923;28;19990;-90
2023/04/20 10:42:02;;;;;;;;;;;14.20;54.00;;;;;;5035297;28;20383;-90
2023/04/20 10:44:33;;;;;;;;;;;14.10;53.90;;;;;;5029905;28;20064;-90
2023/04/20 10:47:25;;;;;;;;;;;14.10;54.30;;;;;;5053392;28;19917;-90
2023/04/20 10:49:50;;;;;;;;;;;14.00;54.40;;;;;;5031917;28;20010;-91
2023/04/20 10:52:15;;;;;;;;;;;14.00;54.50;;;;;;5029559;28;19944;-90
2023/04/20 10:54:41;;;;;;;;;;;14.00;54.90;;;;;;5030119;28;20264;-90
2023/04/20 10:57:07;;;;;;;;;;;14.00;54.70;;;;;;5030237;28;20067;-90
2023/04/20 10:59:36;;;;;;;;;;;14.00;54.60;;;;;;5031105;28;19909;-90
2023/04/20 11:02:15;;;;;;;;;;;14.00;54.60;;;;;;5064715;28;20184;-90
2023/04/20 11:04:41;;;;;;;;;;;14.00;54.70;;;;;;5049166;28;19896;-90
2023/04/20 11:07:08;;;;;;;;;;;14.00;54.90;;;;;;5026794;28;19913;-90
2023/04/20 11:09:41;;;;;;;;;;;14.00;54.90;;;;;;5025891;28;20209;-90
2023/04/20 11:12:16;;;;;;;;;;;14.00;54.80;;;;;;5020588;28;20270;-90
2023/04/20 11:15:01;;;;;;;;;;;14.10;54.70;;;;;;5024998;28;20255;-89
2023/04/20 11:17:33;;;;;;;;;;;14.20;54.50;;;;;;5021303;28;19975;-90
2023/04/20 11:20:18;;;;;;;;;;;14.30;54.20;;;;;;5021231;28;19909;-91
2023/04/20 11:22:46;;;;;;;;;;;14.30;54.10;;;;;;5022386;28;19978;-90
2023/04/20 11:25:15;;;;;;;;;;;14.40;54.30;;;;;;5024250;28;19912;-91
2023/04/20 11:27:41;;;;;;;;;;;14.50;54.20;;;;;;5025690;28;19974;-90
2023/04/20 11:30:10;;;;;;;;;;;14.50;54.10;;;;;;5024214;28;20390;-90
2023/04/20 11:32:36;;;;;;;;;;;14.60;53.80;;;;;;5025312;28;19919;-90
2023/04/20 11:35:06;;;;;;;;;;;14.60;53.90;;;;;;5046249;28;19917;-90
2023/04/20 11:37:35;;;;;;;;;;;14.60;53.70;;;;;;5028907;28;19971;-90
2023/04/20 11:40:07;;;;;;;;;;;14.60;53.80;;;;;;5029541;28;20345;-90
2023/04/20 11:42:32;;;;;;;;;;;14.50;53.90;;;;;;5028602;28;20067;-91
2023/04/20 11:45:01;;;;;;;;;;;14.50;54.00;;;;;;5046126;28;20011;-90
2023/04/20 11:47:27;;;;;;;;;;;14.40;54.20;;;;;;5030411;28;20019;-90
2023/04/20 11:49:52;;;;;;;;;;;14.40;54.10;;;;;;5026126;28;19909;-91
2023/04/20 11:52:18;;;;;;;;;;;14.40;54.20;;;;;;5027225;28;20175;-90
2023/04/20 11:54:46;;;;;;;;;;;14.40;54.30;;;;;;5026122;28;20219;-90
2023/04/20 11:57:15;;;;;;;;;;;14.30;54.20;;;;;;5029013;28;19909;-91
2023/04/20 11:59:46;;;;;;;;;;;14.30;54.40;;;;;;5025279;28;20020;-90
2023/04/20 12:02:16;;;;;;;;;;;14.20;54.40;;;;;;5044410;28;19995;-89
2023/04/20 12:04:45;;;;;;;;;;;14.20;54.60;;;;;;5024541;28;19909;-90
2023/04/20 12:07:13;;;;;;;;;;;14.20;54.60;;;;;;5042226;28;19909;-90
2023/04/20 12:09:41;;;;;;;;;;;14.20;54.60;;;;;;5045224;28;19919;-90
2023/04/20 12:12:10;;;;;;;;;;;14.20;54.70;;;;;;5025839;28;19909;-90
2023/04/20 12:14:39;;;;;;;;;;;14.20;54.80;;;;;;5040608;28;19917;-91
2023/04/20 12:17:07;;;;;;;;;;;14.20;54.80;;;;;;5025014;28;20007;-90
2023/04/20 12:19:36;;;;;;;;;;;14.20;54.80;;;;;;5023702;28;19967;-90
2023/04/20 12:22:04;;;;;;;;;;;14.20;55.00;;;;;;5027361;28;20195;-91
2023/04/20 12:24:33;;;;;;;;;;;14.20;55.30;;;;;;5025880;28;19919;-90
2023/04/20 12:26:58;;;;;;;;;;;14.30;54.80;;;;;;5027154;28;19912;-91
2023/04/20 12:29:24;;;;;;;;;;;14.40;54.80;;;;;;5043667;28;19916;-93
2023/04/20 12:31:50;;;;;;;;;;;14.40;54.70;;;;;;5030912;28;20021;-90
2023/04/20 12:34:18;;;;;;;;;;;14.40;54.60;;;;;;5028641;28;19990;-91
2023/04/20 12:36:44;;;;;;;;;;;14.40;54.70;;;;;;5046078;28;20436;-90
2023/04/20 12:39:10;;;;;;;;;;;14.40;54.50;;;;;;5028899;28;20015;-89
2023/04/20 12:41:36;;;;;;;;;;;14.40;54.60;;;;;;5029626;28;20223;-90
2023/04/20 12:44:01;;;;;;;;;;;14.40;54.60;;;;;;5031017;28;20341;-91
2023/04/20 12:46:27;;;;;;;;;;;14.40;54.50;;;;;;5028568;28;20012;-89
2023/04/20 12:48:52;;;;;;;;;;;14.40;54.50;;;;;;5028179;28;20114;-90
2023/04/20 12:51:18;;;;;;;;;;;14.40;54.50;;;;;;5022002;28;19970;-90
2023/04/20 12:53:47;;;;;;;;;;;14.50;54.50;;;;;;5022861;28;20018;-90
2023/04/20 12:56:14;;;;;;;;;;;14.40;54.80;;;;;;5024861;28;19909;-90
2023/04/20 12:58:39;;;;;;;;;;;14.40;54.50;;;;;;5024908;28;19954;-89
2023/04/20 13:01:08;;;;;;;;;;;14.40;54.40;;;;;;5025042;28;19948;-89
2023/04/20 13:03:34;;;;;;;;;;;14.50;54.40;;;;;;5024235;28;20282;-90
2023/04/20 13:06:02;;;;;;;;;;;14.50;54.30;;;;;;5025629;28;19909;-90
2023/04/20 13:08:31;;;;;;;;;;;14.50;56.30;;;;;;5024838;28;20019;-90
2023/04/20 13:10:57;;;;;;;;;;;14.60;59.20;;;;;;5027895;28;19962;-90
2023/04/20 13:13:22;;;;;;;;;;;14.70;60.10;;;;;;5025919;28;20157;-90
2023/04/20 13:15:51;;;;;;;;;;;14.80;60.40;;;;;;5029449;28;19913;-90
2023/04/20 13:18:19;;;;;;;;;;;14.90;60.70;;;;;;5029088;28;19916;-89
2023/04/20 13:20:44;;;;;;;;;;;15.00;60.80;;;;;;5029757;28;19916;-91
2023/04/20 13:23:10;;;;;;;;;;;15.00;60.40;;;;;;5026717;28;19913;-90
2023/04/20 13:25:37;;;;;;;;;;;15.10;60.00;;;;;;5025294;28;20294;-90
2023/04/20 13:28:03;;;;;;;;;;;15.10;59.90;;;;;;5024900;28;20375;-91
2023/04/20 13:30:29;;;;;;;;;;;15.10;60.00;;;;;;5024860;28;20182;-90
2023/04/20 13:32:55;;;;;;;;;;;15.20;60.10;;;;;;5028783;28;19909;-91
2023/04/20 13:35:24;;;;;;;;;;;15.20;60.40;;;;;;5026503;28;19923;-90
2023/04/20 13:37:52;;;;;;;;;;;15.20;60.80;;;;;;5026621;28;20149;-90
2023/04/20 13:40:18;;;;;;;;;;;15.20;61.10;;;;;;5026263;28;20038;-90
2023/04/20 13:42:44;;;;;;;;;;;15.20;61.20;;;;;;5025127;28;19919;-90
2023/04/20 13:45:10;;;;;;;;;;;15.30;61.30;;;;;;5028330;28;19924;-90
2023/04/20 13:47:36;;;;;;;;;;;15.40;61.10;;;;;;5026319;28;19924;-90
2023/04/20 13:50:02;;;;;;;;;;;15.40;60.80;;;;;;5025737;28;20094;-90
2023/04/20 13:52:28;;;;;;;;;;;15.50;60.70;;;;;;5024945;28;20259;-90
2023/04/20 13:54:54;;;;;;;;;;;15.60;60.30;;;;;;5026657;28;19980;-90
2023/04/20 13:57:22;;;;;;;;;;;15.50;59.80;;;;;;5026832;28;19909;-90
2023/04/20 13:59:51;;;;;;;;;;;15.50;59.90;;;;;;5028892;28;20255;-91
2023/04/20 14:02:17;;;;;;;;;;;15.50;59.30;;;;;;5027190;28;19920;-92
2023/04/20 14:04:46;;;;;;;;;;;15.50;59.10;;;;;;5028016;28;19909;-91
2023/04/20 14:07:14;;;;;;;;;;;15.50;59.10;;;;;;5027190;28;19955;-91
2023/04/20 14:09:43;;;;;;;;;;;15.50;59.10;;;;;;5026535;28;20008;-91
2023/04/20 14:12:12;;;;;;;;;;;15.50;59.20;;;;;;5024645;28;20267;-91
2023/04/20 14:14:38;;;;;;;;;;;15.50;59.20;;;;;;5024648;28;19959;-91
2023/04/20 14:17:07;;;;;;;;;;;15.60;59.20;;;;;;5026320;28;20271;-91
2023/04/20 14:19:32;;;;;;;;;;;15.60;59.10;;;;;;5025494;28;19908;-91